sensor_id;sensor_type;location;lat;lon;timestamp;P1;durP1;ratioP1;P2;durP2;ratioP2
22111;SDS011;11222;50.872;4.312;2023-03-14T00:00:59;8.95;;;2.45;;
22111;SDS011;11222;50.872;4.312;2023-03-14T00:03:25;5.63;;;2.13;;
22111;SDS011;11222;50.872;4.312;2023-03-14T00:05:53;6.97;;;2.20;;
22111;SDS011;11222;50.872;4.312;2023-03-14T00:08:18;7.00;;;2.25;;
22111;SDS011;11222;50.872;4.312;2023-03-14T00:10:46;7.03;;;2.95;;
22111;SDS011;11222;50.872;4.312;2023-03-14T00:13:12;6.85;;;2.72;;
22111;SDS011;11222;50.872;4.312;2023-03-14T00:15:37;5.30;;;1.98;;
22111;SDS011;11222;50.872;4.312;2023-03-14T00:18:03;9.10;;;2.40;;
22111;SDS011;11222;50.872;4.312;2023-03-14T00:20:28;7.72;;;3.05;;
22111;SDS011;11222;50.872;4.312;2023-03-14T00:22:54;7.25;;;2.00;;
22111;SDS011;11222;50.872;4.312;2023-03-14T00:25:20;8.27;;;2.30;;
22111;SDS011;11222;50.872;4.312;2023-03-14T00:27:45;6.85;;;2.03;;
22111;SDS011;11222;50.872;4.312;2023-03-14T00:30:11;7.63;;;2.33;;
22111;SDS011;11222;50.872;4.312;2023-03-14T00:32:37;7.80;;;2.25;;
22111;SDS011;11222;50.872;4.312;2023-03-14T00:35:03;9.45;;;2.45;;
22111;SDS011;11222;50.872;4.312;2023-03-14T00:37:29;12.45;;;2.75;;
22111;SDS011;11222;50.872;4.312;2023-03-14T00:39:54;9.55;;;2.55;;
22111;SDS011;11222;50.872;4.312;2023-03-14T00:42:20;9.07;;;2.85;;
22111;SDS011;11222;50.872;4.312;2023-03-14T00:44:46;10.23;;;2.67;;
22111;SDS011;11222;50.872;4.312;2023-03-14T00:47:11;8.35;;;2.40;;
22111;SDS011;11222;50.872;4.312;2023-03-14T00:49:37;6.88;;;2.63;;
22111;SDS011;11222;50.872;4.312;2023-03-14T00:52:03;10.32;;;2.78;;
22111;SDS011;11222;50.872;4.312;2023-03-14T00:54:28;10.13;;;2.67;;
22111;SDS011;11222;50.872;4.312;2023-03-14T00:56:54;9.32;;;2.50;;
22111;SDS011;11222;50.872;4.312;2023-03-14T00:59:20;9.70;;;2.45;;
22111;SDS011;11222;50.872;4.312;2023-03-14T01:01:46;10.88;;;2.60;;
22111;SDS011;11222;50.872;4.312;2023-03-14T01:04:12;7.72;;;2.42;;
22111;SDS011;11222;50.872;4.312;2023-03-14T01:06:38;12.35;;;2.70;;
22111;SDS011;11222;50.872;4.312;2023-03-14T01:09:04;5.97;;;2.60;;
22111;SDS011;11222;50.872;4.312;2023-03-14T01:11:31;9.98;;;2.72;;
22111;SDS011;11222;50.872;4.312;2023-03-14T01:13:59;11.95;;;2.80;;
22111;SDS011;11222;50.872;4.312;2023-03-14T01:16:27;7.32;;;2.70;;
22111;SDS011;11222;50.872;4.312;2023-03-14T01:18:53;10.20;;;2.55;;
22111;SDS011;11222;50.872;4.312;2023-03-14T01:21:20;11.25;;;2.78;;
22111;SDS011;11222;50.872;4.312;2023-03-14T01:23:48;9.82;;;2.55;;
22111;SDS011;11222;50.872;4.312;2023-03-14T01:26:16;11.77;;;3.00;;
22111;SDS011;11222;50.872;4.312;2023-03-14T01:28:46;10.10;;;2.40;;
22111;SDS011;11222;50.872;4.312;2023-03-14T01:31:13;8.80;;;2.33;;
22111;SDS011;11222;50.872;4.312;2023-03-14T01:33:39;11.00;;;2.90;;
22111;SDS011;11222;50.872;4.312;2023-03-14T01:36:05;11.82;;;3.45;;
22111;SDS011;11222;50.872;4.312;2023-03-14T01:38:32;12.20;;;2.67;;
22111;SDS011;11222;50.872;4.312;2023-03-14T01:40:59;9.55;;;2.28;;
22111;SDS011;11222;50.872;4.312;2023-03-14T01:43:25;11.38;;;2.70;;
22111;SDS011;11222;50.872;4.312;2023-03-14T01:46:10;11.63;;;2.85;;
22111;SDS011;11222;50.872;4.312;2023-03-14T01:51:24;7.95;;;2.50;;
22111;SDS011;11222;50.872;4.312;2023-03-14T01:57:20;8.32;;;2.58;;
22111;SDS011;11222;50.872;4.312;2023-03-14T01:59:52;8.30;;;2.30;;
22111;SDS011;11222;50.872;4.312;2023-03-14T02:02:23;8.57;;;2.75;;
22111;SDS011;11222;50.872;4.312;2023-03-14T02:04:51;6.45;;;1.98;;
22111;SDS011;11222;50.872;4.312;2023-03-14T02:09:56;8.07;;;2.22;;
22111;SDS011;11222;50.872;4.312;2023-03-14T02:12:23;10.30;;;1.83;;
22111;SDS011;11222;50.872;4.312;2023-03-14T02:14:48;7.18;;;1.85;;
22111;SDS011;11222;50.872;4.312;2023-03-14T02:17:15;6.57;;;2.00;;
22111;SDS011;11222;50.872;4.312;2023-03-14T02:19:49;8.77;;;1.88;;
22111;SDS011;11222;50.872;4.312;2023-03-14T02:22:26;7.97;;;2.38;;
22111;SDS011;11222;50.872;4.312;2023-03-14T02:25:00;3.53;;;1.50;;
22111;SDS011;11222;50.872;4.312;2023-03-14T02:27:28;4.95;;;1.40;;
22111;SDS011;11222;50.872;4.312;2023-03-14T02:29:55;6.90;;;1.60;;
22111;SDS011;11222;50.872;4.312;2023-03-14T02:32:31;4.45;;;1.40;;
22111;SDS011;11222;50.872;4.312;2023-03-14T02:35:00;5.18;;;1.38;;
22111;SDS011;11222;50.872;4.312;2023-03-14T02:38:15;5.47;;;1.60;;
22111;SDS011;11222;50.872;4.312;2023-03-14T02:40:25;6.10;;;1.80;;
22111;SDS011;11222;50.872;4.312;2023-03-14T02:42:51;4.35;;;1.45;;
22111;SDS011;11222;50.872;4.312;2023-03-14T02:47:43;7.05;;;1.92;;
22111;SDS011;11222;50.872;4.312;2023-03-14T02:50:13;4.63;;;1.60;;
22111;SDS011;11222;50.872;4.312;2023-03-14T02:52:42;8.30;;;2.13;;
22111;SDS011;11222;50.872;4.312;2023-03-14T02:55:08;11.30;;;2.53;;
22111;SDS011;11222;50.872;4.312;2023-03-14T02:57:34;5.45;;;2.38;;
22111;SDS011;11222;50.872;4.312;2023-03-14T03:00:00;8.82;;;2.85;;
22111;SDS011;11222;50.872;4.312;2023-03-14T03:02:29;9.00;;;3.05;;
22111;SDS011;11222;50.872;4.312;2023-03-14T03:04:55;10.40;;;3.85;;
22111;SDS011;11222;50.872;4.312;2023-03-14T03:07:21;12.60;;;4.03;;
22111;SDS011;11222;50.872;4.312;2023-03-14T03:09:46;12.18;;;4.32;;
22111;SDS011;11222;50.872;4.312;2023-03-14T03:12:12;10.77;;;4.43;;
22111;SDS011;11222;50.872;4.312;2023-03-14T03:14:38;9.68;;;4.32;;
22111;SDS011;11222;50.872;4.312;2023-03-14T03:17:04;13.00;;;4.78;;
22111;SDS011;11222;50.872;4.312;2023-03-14T03:19:30;12.70;;;5.00;;
22111;SDS011;11222;50.872;4.312;2023-03-14T03:21:56;15.75;;;4.75;;
22111;SDS011;11222;50.872;4.312;2023-03-14T03:24:23;15.32;;;5.20;;
22111;SDS011;11222;50.872;4.312;2023-03-14T03:26:49;17.08;;;5.30;;
22111;SDS011;11222;50.872;4.312;2023-03-14T03:29:14;12.00;;;4.85;;
22111;SDS011;11222;50.872;4.312;2023-03-14T03:31:40;15.98;;;4.82;;
22111;SDS011;11222;50.872;4.312;2023-03-14T03:34:06;17.08;;;5.20;;
22111;SDS011;11222;50.872;4.312;2023-03-14T03:36:32;13.55;;;4.47;;
22111;SDS011;11222;50.872;4.312;2023-03-14T03:38:57;12.20;;;4.22;;
22111;SDS011;11222;50.872;4.312;2023-03-14T03:41:23;12.75;;;4.32;;
22111;SDS011;11222;50.872;4.312;2023-03-14T03:43:49;10.20;;;4.00;;
22111;SDS011;11222;50.872;4.312;2023-03-14T03:46:15;17.17;;;4.95;;
22111;SDS011;11222;50.872;4.312;2023-03-14T03:48:41;17.40;;;4.25;;
22111;SDS011;11222;50.872;4.312;2023-03-14T03:51:06;11.05;;;4.03;;
22111;SDS011;11222;50.872;4.312;2023-03-14T03:53:32;10.13;;;3.33;;
22111;SDS011;11222;50.872;4.312;2023-03-14T03:55:58;11.25;;;3.47;;
22111;SDS011;11222;50.872;4.312;2023-03-14T03:58:23;11.93;;;3.38;;
22111;SDS011;11222;50.872;4.312;2023-03-14T04:00:49;9.93;;;2.95;;
22111;SDS011;11222;50.872;4.312;2023-03-14T04:03:15;11.48;;;3.38;;
22111;SDS011;11222;50.872;4.312;2023-03-14T04:05:40;9.60;;;3.03;;
22111;SDS011;11222;50.872;4.312;2023-03-14T04:08:06;10.80;;;3.20;;
22111;SDS011;11222;50.872;4.312;2023-03-14T04:10:34;10.73;;;2.90;;
22111;SDS011;11222;50.872;4.312;2023-03-14T04:13:00;11.02;;;2.90;;
22111;SDS011;11222;50.872;4.312;2023-03-14T04:15:25;7.50;;;2.50;;
22111;SDS011;11222;50.872;4.312;2023-03-14T04:17:51;10.30;;;2.90;;
22111;SDS011;11222;50.872;4.312;2023-03-14T04:20:22;7.78;;;2.60;;
22111;SDS011;11222;50.872;4.312;2023-03-14T04:22:48;10.32;;;2.58;;
22111;SDS011;11222;50.872;4.312;2023-03-14T04:25:13;10.30;;;2.83;;
22111;SDS011;11222;50.872;4.312;2023-03-14T04:27:41;7.50;;;2.30;;
22111;SDS011;11222;50.872;4.312;2023-03-14T04:30:07;8.68;;;2.60;;
22111;SDS011;11222;50.872;4.312;2023-03-14T04:32:33;9.68;;;2.88;;
22111;SDS011;11222;50.872;4.312;2023-03-14T04:34:59;7.10;;;2.25;;
22111;SDS011;11222;50.872;4.312;2023-03-14T04:37:24;6.53;;;2.70;;
22111;SDS011;11222;50.872;4.312;2023-03-14T04:39:50;6.88;;;2.33;;
22111;SDS011;11222;50.872;4.312;2023-03-14T04:42:16;8.48;;;2.30;;
22111;SDS011;11222;50.872;4.312;2023-03-14T04:44:41;6.70;;;2.60;;
22111;SDS011;11222;50.872;4.312;2023-03-14T04:47:08;7.65;;;2.53;;
22111;SDS011;11222;50.872;4.312;2023-03-14T04:49:33;7.88;;;2.75;;
22111;SDS011;11222;50.872;4.312;2023-03-14T04:51:59;7.90;;;2.60;;
22111;SDS011;11222;50.872;4.312;2023-03-14T04:54:25;6.97;;;2.55;;
22111;SDS011;11222;50.872;4.312;2023-03-14T04:56:50;7.38;;;2.85;;
22111;SDS011;11222;50.872;4.312;2023-03-14T04:59:16;7.05;;;2.92;;
22111;SDS011;11222;50.872;4.312;2023-03-14T05:01:42;9.43;;;2.80;;
22111;SDS011;11222;50.872;4.312;2023-03-14T05:04:07;6.88;;;2.95;;
22111;SDS011;11222;50.872;4.312;2023-03-14T05:06:33;7.93;;;2.88;;
22111;SDS011;11222;50.872;4.312;2023-03-14T05:08:59;5.85;;;3.22;;
22111;SDS011;11222;50.872;4.312;2023-03-14T05:11:25;6.95;;;2.97;;
22111;SDS011;11222;50.872;4.312;2023-03-14T05:13:51;6.43;;;2.97;;
22111;SDS011;11222;50.872;4.312;2023-03-14T05:16:17;6.97;;;3.15;;
22111;SDS011;11222;50.872;4.312;2023-03-14T05:18:42;4.45;;;3.08;;
22111;SDS011;11222;50.872;4.312;2023-03-14T05:21:08;6.68;;;3.00;;
22111;SDS011;11222;50.872;4.312;2023-03-14T05:23:34;4.57;;;3.15;;
22111;SDS011;11222;50.872;4.312;2023-03-14T05:25:59;10.50;;;3.50;;
22111;SDS011;11222;50.872;4.312;2023-03-14T05:28:25;7.22;;;3.38;;
22111;SDS011;11222;50.872;4.312;2023-03-14T05:30:51;6.47;;;3.28;;
22111;SDS011;11222;50.872;4.312;2023-03-14T05:33:17;5.40;;;2.97;;
22111;SDS011;11222;50.872;4.312;2023-03-14T05:35:43;5.05;;;3.13;;
22111;SDS011;11222;50.872;4.312;2023-03-14T05:38:08;7.60;;;3.35;;
22111;SDS011;11222;50.872;4.312;2023-03-14T05:40:34;7.00;;;3.40;;
22111;SDS011;11222;50.872;4.312;2023-03-14T05:43:00;6.15;;;3.70;;
22111;SDS011;11222;50.872;4.312;2023-03-14T05:45:25;7.53;;;3.80;;
22111;SDS011;11222;50.872;4.312;2023-03-14T05:47:51;5.35;;;3.55;;
22111;SDS011;11222;50.872;4.312;2023-03-14T05:50:17;5.95;;;3.75;;
22111;SDS011;11222;50.872;4.312;2023-03-14T05:52:43;4.85;;;3.42;;
22111;SDS011;11222;50.872;4.312;2023-03-14T05:55:08;7.25;;;3.58;;
22111;SDS011;11222;50.872;4.312;2023-03-14T05:57:34;5.93;;;3.70;;
22111;SDS011;11222;50.872;4.312;2023-03-14T06:00:00;7.90;;;4.28;;
22111;SDS011;11222;50.872;4.312;2023-03-14T06:02:26;6.25;;;4.43;;
22111;SDS011;11222;50.872;4.312;2023-03-14T06:04:52;7.28;;;3.92;;
22111;SDS011;11222;50.872;4.312;2023-03-14T06:07:17;7.18;;;4.20;;
22111;SDS011;11222;50.872;4.312;2023-03-14T06:09:43;7.65;;;4.10;;
22111;SDS011;11222;50.872;4.312;2023-03-14T06:12:09;8.43;;;4.38;;
22111;SDS011;11222;50.872;4.312;2023-03-14T06:14:35;6.10;;;4.30;;
22111;SDS011;11222;50.872;4.312;2023-03-14T06:17:00;10.07;;;4.60;;
22111;SDS011;11222;50.872;4.312;2023-03-14T06:19:26;7.25;;;4.05;;
22111;SDS011;11222;50.872;4.312;2023-03-14T06:21:52;8.30;;;4.20;;
22111;SDS011;11222;50.872;4.312;2023-03-14T06:24:17;8.73;;;3.80;;
22111;SDS011;11222;50.872;4.312;2023-03-14T06:26:43;4.93;;;3.40;;
22111;SDS011;11222;50.872;4.312;2023-03-14T06:29:09;4.35;;;2.90;;
22111;SDS011;11222;50.872;4.312;2023-03-14T06:31:35;4.65;;;3.08;;
22111;SDS011;11222;50.872;4.312;2023-03-14T06:34:01;4.97;;;3.10;;
22111;SDS011;11222;50.872;4.312;2023-03-14T06:36:27;6.88;;;4.00;;
22111;SDS011;11222;50.872;4.312;2023-03-14T06:38:53;6.38;;;3.10;;
22111;SDS011;11222;50.872;4.312;2023-03-14T06:41:19;6.53;;;3.67;;
22111;SDS011;11222;50.872;4.312;2023-03-14T06:43:44;7.47;;;3.35;;
22111;SDS011;11222;50.872;4.312;2023-03-14T06:46:10;6.60;;;3.15;;
22111;SDS011;11222;50.872;4.312;2023-03-14T06:48:36;7.85;;;3.20;;
22111;SDS011;11222;50.872;4.312;2023-03-14T06:51:02;5.50;;;3.15;;
22111;SDS011;11222;50.872;4.312;2023-03-14T06:53:27;4.85;;;3.17;;
22111;SDS011;11222;50.872;4.312;2023-03-14T06:55:53;4.97;;;2.80;;
22111;SDS011;11222;50.872;4.312;2023-03-14T06:58:19;11.38;;;5.55;;
22111;SDS011;11222;50.872;4.312;2023-03-14T07:00:44;6.15;;;3.90;;
22111;SDS011;11222;50.872;4.312;2023-03-14T07:03:10;6.35;;;4.32;;
22111;SDS011;11222;50.872;4.312;2023-03-14T07:05:39;3.83;;;2.72;;
22111;SDS011;11222;50.872;4.312;2023-03-14T07:08:05;6.07;;;2.92;;
22111;SDS011;11222;50.872;4.312;2023-03-14T07:10:32;7.95;;;2.70;;
22111;SDS011;11222;50.872;4.312;2023-03-14T07:12:58;5.28;;;2.80;;
22111;SDS011;11222;50.872;4.312;2023-03-14T07:15:24;3.05;;;2.10;;
22111;SDS011;11222;50.872;4.312;2023-03-14T07:17:49;3.33;;;1.98;;
22111;SDS011;11222;50.872;4.312;2023-03-14T07:20:18;6.20;;;2.58;;
22111;SDS011;11222;50.872;4.312;2023-03-14T07:22:43;3.85;;;2.58;;
22111;SDS011;11222;50.872;4.312;2023-03-14T07:25:12;3.38;;;2.10;;
22111;SDS011;11222;50.872;4.312;2023-03-14T07:27:38;6.43;;;2.72;;
22111;SDS011;11222;50.872;4.312;2023-03-14T07:30:04;7.05;;;2.78;;
22111;SDS011;11222;50.872;4.312;2023-03-14T07:32:30;4.88;;;2.45;;
22111;SDS011;11222;50.872;4.312;2023-03-14T07:34:56;8.85;;;3.15;;
22111;SDS011;11222;50.872;4.312;2023-03-14T07:37:22;5.00;;;3.25;;
22111;SDS011;11222;50.872;4.312;2023-03-14T07:39:47;5.43;;;2.90;;
22111;SDS011;11222;50.872;4.312;2023-03-14T07:42:13;5.53;;;3.15;;
22111;SDS011;11222;50.872;4.312;2023-03-14T07:44:39;5.90;;;2.90;;
22111;SDS011;11222;50.872;4.312;2023-03-14T07:47:05;4.03;;;2.75;;
22111;SDS011;11222;50.872;4.312;2023-03-14T07:49:31;4.90;;;3.30;;
22111;SDS011;11222;50.872;4.312;2023-03-14T07:51:56;8.80;;;4.05;;
22111;SDS011;11222;50.872;4.312;2023-03-14T07:54:23;9.15;;;4.60;;
22111;SDS011;11222;50.872;4.312;2023-03-14T07:56:49;8.68;;;4.15;;
22111;SDS011;11222;50.872;4.312;2023-03-14T07:59:17;11.43;;;5.90;;
22111;SDS011;11222;50.872;4.312;2023-03-14T08:01:43;6.78;;;4.43;;
22111;SDS011;11222;50.872;4.312;2023-03-14T08:04:09;6.80;;;4.45;;
22111;SDS011;11222;50.872;4.312;2023-03-14T08:06:35;9.82;;;4.65;;
22111;SDS011;11222;50.872;4.312;2023-03-14T08:09:02;9.27;;;4.78;;
22111;SDS011;11222;50.872;4.312;2023-03-14T08:11:28;11.32;;;4.57;;
22111;SDS011;11222;50.872;4.312;2023-03-14T08:13:54;8.60;;;4.32;;
22111;SDS011;11222;50.872;4.312;2023-03-14T08:16:20;7.85;;;3.60;;
22111;SDS011;11222;50.872;4.312;2023-03-14T08:18:47;10.93;;;4.00;;
22111;SDS011;11222;50.872;4.312;2023-03-14T08:21:13;6.47;;;3.70;;
22111;SDS011;11222;50.872;4.312;2023-03-14T08:23:39;7.68;;;4.07;;
22111;SDS011;11222;50.872;4.312;2023-03-14T08:26:05;5.95;;;3.58;;
22111;SDS011;11222;50.872;4.312;2023-03-14T08:28:31;9.02;;;3.60;;
22111;SDS011;11222;50.872;4.312;2023-03-14T08:30:58;5.22;;;3.30;;
22111;SDS011;11222;50.872;4.312;2023-03-14T08:33:25;4.10;;;2.30;;
22111;SDS011;11222;50.872;4.312;2023-03-14T08:35:55;7.35;;;2.70;;
22111;SDS011;11222;50.872;4.312;2023-03-14T08:38:22;5.20;;;2.80;;
22111;SDS011;11222;50.872;4.312;2023-03-14T08:40:48;7.05;;;2.88;;
22111;SDS011;11222;50.872;4.312;2023-03-14T08:43:15;4.93;;;3.03;;
22111;SDS011;11222;50.872;4.312;2023-03-14T08:45:40;6.57;;;3.03;;
22111;SDS011;11222;50.872;4.312;2023-03-14T08:48:06;5.80;;;3.13;;
22111;SDS011;11222;50.872;4.312;2023-03-14T08:50:32;7.03;;;3.90;;
22111;SDS011;11222;50.872;4.312;2023-03-14T08:52:58;6.80;;;3.70;;
22111;SDS011;11222;50.872;4.312;2023-03-14T08:55:25;6.10;;;3.50;;
22111;SDS011;11222;50.872;4.312;2023-03-14T08:57:54;4.95;;;3.92;;
22111;SDS011;11222;50.872;4.312;2023-03-14T09:00:20;6.22;;;3.58;;
22111;SDS011;11222;50.872;4.312;2023-03-14T09:02:46;6.43;;;3.80;;
22111;SDS011;11222;50.872;4.312;2023-03-14T09:05:12;9.85;;;3.92;;
22111;SDS011;11222;50.872;4.312;2023-03-14T09:07:38;7.57;;;3.90;;
22111;SDS011;11222;50.872;4.312;2023-03-14T09:10:05;7.07;;;3.53;;
22111;SDS011;11222;50.872;4.312;2023-03-14T09:12:32;8.93;;;4.45;;
22111;SDS011;11222;50.872;4.312;2023-03-14T09:14:57;9.30;;;3.58;;
22111;SDS011;11222;50.872;4.312;2023-03-14T09:17:23;11.50;;;4.03;;
22111;SDS011;11222;50.872;4.312;2023-03-14T09:19:49;9.18;;;3.60;;
22111;SDS011;11222;50.872;4.312;2023-03-14T09:22:15;14.93;;;4.30;;
22111;SDS011;11222;50.872;4.312;2023-03-14T09:24:41;11.63;;;3.30;;
22111;SDS011;11222;50.872;4.312;2023-03-14T09:27:08;12.73;;;3.60;;
22111;SDS011;11222;50.872;4.312;2023-03-14T09:29:34;9.05;;;3.53;;
22111;SDS011;11222;50.872;4.312;2023-03-14T09:31:59;10.63;;;3.40;;
22111;SDS011;11222;50.872;4.312;2023-03-14T09:34:25;10.02;;;3.90;;
22111;SDS011;11222;50.872;4.312;2023-03-14T09:36:52;11.15;;;3.50;;
22111;SDS011;11222;50.872;4.312;2023-03-14T09:39:18;16.52;;;4.28;;
22111;SDS011;11222;50.872;4.312;2023-03-14T09:41:44;13.35;;;3.58;;
22111;SDS011;11222;50.872;4.312;2023-03-14T09:44:25;10.60;;;3.60;;
22111;SDS011;11222;50.872;4.312;2023-03-14T09:46:55;23.80;;;9.45;;
22111;SDS011;11222;50.872;4.312;2023-03-14T09:49:29;12.90;;;3.65;;
22111;SDS011;11222;50.872;4.312;2023-03-14T09:52:01;13.00;;;3.70;;
22111;SDS011;11222;50.872;4.312;2023-03-14T09:54:35;7.90;;;3.58;;
22111;SDS011;11222;50.872;4.312;2023-03-14T09:57:05;10.48;;;3.10;;
22111;SDS011;11222;50.872;4.312;2023-03-14T09:59:36;8.90;;;3.20;;
22111;SDS011;11222;50.872;4.312;2023-03-14T10:02:11;8.27;;;2.92;;
22111;SDS011;11222;50.872;4.312;2023-03-14T10:04:44;10.00;;;3.38;;
22111;SDS011;11222;50.872;4.312;2023-03-14T10:07:15;7.32;;;2.72;;
22111;SDS011;11222;50.872;4.312;2023-03-14T10:09:45;9.35;;;2.67;;
22111;SDS011;11222;50.872;4.312;2023-03-14T10:12:15;8.05;;;2.72;;
22111;SDS011;11222;50.872;4.312;2023-03-14T10:14:46;10.18;;;2.80;;
22111;SDS011;11222;50.872;4.312;2023-03-14T10:17:17;9.90;;;3.20;;
22111;SDS011;11222;50.872;4.312;2023-03-14T10:19:52;7.45;;;2.75;;
22111;SDS011;11222;50.872;4.312;2023-03-14T10:22:23;11.13;;;2.92;;
22111;SDS011;11222;50.872;4.312;2023-03-14T10:24:52;7.45;;;2.88;;
22111;SDS011;11222;50.872;4.312;2023-03-14T10:27:23;6.90;;;2.85;;
22111;SDS011;11222;50.872;4.312;2023-03-14T10:32:28;8.35;;;2.50;;
22111;SDS011;11222;50.872;4.312;2023-03-14T10:35:06;8.55;;;2.80;;
22111;SDS011;11222;50.872;4.312;2023-03-14T10:37:34;12.43;;;3.28;;
22111;SDS011;11222;50.872;4.312;2023-03-14T10:40:00;7.68;;;2.45;;
22111;SDS011;11222;50.872;4.312;2023-03-14T10:42:30;12.38;;;3.47;;
22111;SDS011;11222;50.872;4.312;2023-03-14T10:45:10;12.85;;;2.47;;
22111;SDS011;11222;50.872;4.312;2023-03-14T10:47:48;6.75;;;2.33;;
22111;SDS011;11222;50.872;4.312;2023-03-14T10:50:25;9.07;;;2.40;;
22111;SDS011;11222;50.872;4.312;2023-03-14T10:52:55;6.43;;;2.53;;
22111;SDS011;11222;50.872;4.312;2023-03-14T10:55:23;9.65;;;2.67;;
22111;SDS011;11222;50.872;4.312;2023-03-14T10:57:50;9.43;;;2.45;;
22111;SDS011;11222;50.872;4.312;2023-03-14T11:00:21;10.15;;;2.50;;
22111;SDS011;11222;50.872;4.312;2023-03-14T11:05:43;10.55;;;2.50;;
22111;SDS011;11222;50.872;4.312;2023-03-14T11:08:22;6.07;;;2.35;;
22111;SDS011;11222;50.872;4.312;2023-03-14T11:13:58;7.10;;;2.67;;
22111;SDS011;11222;50.872;4.312;2023-03-14T11:16:56;4.32;;;1.83;;
22111;SDS011;11222;50.872;4.312;2023-03-14T11:19:28;4.70;;;1.48;;
22111;SDS011;11222;50.872;4.312;2023-03-14T11:27:51;4.60;;;1.30;;
22111;SDS011;11222;50.872;4.312;2023-03-14T11:38:37;1.73;;;1.45;;
22111;SDS011;11222;50.872;4.312;2023-03-14T11:41:10;3.72;;;1.95;;
22111;SDS011;11222;50.872;4.312;2023-03-14T11:43:58;2.65;;;1.40;;
22111;SDS011;11222;50.872;4.312;2023-03-14T11:51:31;1.77;;;1.25;;
22111;SDS011;11222;50.872;4.312;2023-03-14T11:56:33;1.83;;;1.30;;
22111;SDS011;11222;50.872;4.312;2023-03-14T11:59:27;4.30;;;1.23;;
22111;SDS011;11222;50.872;4.312;2023-03-14T12:02:00;3.83;;;1.33;;
22111;SDS011;11222;50.872;4.312;2023-03-14T12:07:29;3.95;;;1.40;;
22111;SDS011;11222;50.872;4.312;2023-03-14T12:10:03;3.10;;;1.40;;
22111;SDS011;11222;50.872;4.312;2023-03-14T12:12:29;4.40;;;1.30;;
22111;SDS011;11222;50.872;4.312;2023-03-14T12:14:58;4.63;;;1.58;;
22111;SDS011;11222;50.872;4.312;2023-03-14T12:17:35;2.45;;;1.40;;
22111;SDS011;11222;50.872;4.312;2023-03-14T12:22:42;5.40;;;1.70;;
22111;SDS011;11222;50.872;4.312;2023-03-14T12:25:21;4.07;;;1.67;;
22111;SDS011;11222;50.872;4.312;2023-03-14T12:30:54;2.58;;;1.67;;
22111;SDS011;11222;50.872;4.312;2023-03-14T12:35:58;3.08;;;1.63;;
22111;SDS011;11222;50.872;4.312;2023-03-14T12:41:03;4.50;;;2.00;;
22111;SDS011;11222;50.872;4.312;2023-03-14T12:43:31;3.25;;;1.73;;
22111;SDS011;11222;50.872;4.312;2023-03-14T12:48:55;5.85;;;2.10;;
22111;SDS011;11222;50.872;4.312;2023-03-14T12:51:39;4.13;;;2.10;;
22111;SDS011;11222;50.872;4.312;2023-03-14T12:54:17;5.93;;;2.28;;
22111;SDS011;11222;50.872;4.312;2023-03-14T12:59:27;6.95;;;3.22;;
22111;SDS011;11222;50.872;4.312;2023-03-14T13:01:55;3.60;;;2.40;;
22111;SDS011;11222;50.872;4.312;2023-03-14T13:04:43;7.50;;;2.67;;
22111;SDS011;11222;50.872;4.312;2023-03-14T13:07:12;5.28;;;2.85;;
22111;SDS011;11222;50.872;4.312;2023-03-14T13:09:55;4.80;;;2.33;;
22111;SDS011;11222;50.872;4.312;2023-03-14T13:12:27;10.02;;;3.30;;
22111;SDS011;11222;50.872;4.312;2023-03-14T13:15:00;17.42;;;7.72;;
22111;SDS011;11222;50.872;4.312;2023-03-14T13:17:30;7.93;;;3.65;;
22111;SDS011;11222;50.872;4.312;2023-03-14T13:20:00;12.07;;;3.03;;
22111;SDS011;11222;50.872;4.312;2023-03-14T13:22:31;8.77;;;3.03;;
22111;SDS011;11222;50.872;4.312;2023-03-14T13:25:03;11.32;;;3.20;;
22111;SDS011;11222;50.872;4.312;2023-03-14T13:27:34;11.10;;;3.20;;
22111;SDS011;11222;50.872;4.312;2023-03-14T13:30:17;12.68;;;2.70;;
22111;SDS011;11222;50.872;4.312;2023-03-14T13:32:46;11.13;;;2.78;;
22111;SDS011;11222;50.872;4.312;2023-03-14T13:38:20;16.65;;;5.18;;
22111;SDS011;11222;50.872;4.312;2023-03-14T13:40:48;15.88;;;3.58;;
22111;SDS011;11222;50.872;4.312;2023-03-14T13:45:45;13.50;;;4.28;;
22111;SDS011;11222;50.872;4.312;2023-03-14T13:48:19;12.50;;;4.63;;
22111;SDS011;11222;50.872;4.312;2023-03-14T13:50:49;16.83;;;5.18;;
22111;SDS011;11222;50.872;4.312;2023-03-14T13:53:19;15.05;;;4.22;;
22111;SDS011;11222;50.872;4.312;2023-03-14T13:55:45;15.05;;;3.50;;
22111;SDS011;11222;50.872;4.312;2023-03-14T13:58:18;10.32;;;3.40;;
22111;SDS011;11222;50.872;4.312;2023-03-14T14:03:26;20.52;;;4.72;;
22111;SDS011;11222;50.872;4.312;2023-03-14T14:05:56;16.48;;;3.83;;
22111;SDS011;11222;50.872;4.312;2023-03-14T14:08:23;17.73;;;3.15;;
22111;SDS011;11222;50.872;4.312;2023-03-14T14:10:50;21.48;;;4.18;;
22111;SDS011;11222;50.872;4.312;2023-03-14T14:13:20;12.48;;;2.97;;
22111;SDS011;11222;50.872;4.312;2023-03-14T14:15:48;11.48;;;2.80;;
22111;SDS011;11222;50.872;4.312;2023-03-14T14:18:16;14.25;;;3.20;;
22111;SDS011;11222;50.872;4.312;2023-03-14T14:20:47;10.52;;;3.00;;
22111;SDS011;11222;50.872;4.312;2023-03-14T14:23:17;16.10;;;3.15;;
22111;SDS011;11222;50.872;4.312;2023-03-14T14:25:50;16.13;;;3.28;;
22111;SDS011;11222;50.872;4.312;2023-03-14T14:28:28;11.98;;;3.03;;
22111;SDS011;11222;50.872;4.312;2023-03-14T14:36:17;16.08;;;3.17;;
22111;SDS011;11222;50.872;4.312;2023-03-14T14:38:57;5.93;;;2.25;;
22111;SDS011;11222;50.872;4.312;2023-03-14T14:41:31;9.98;;;2.28;;
22111;SDS011;11222;50.872;4.312;2023-03-14T14:44:04;6.00;;;2.03;;
22111;SDS011;11222;50.872;4.312;2023-03-14T14:46:30;6.70;;;2.25;;
22111;SDS011;11222;50.872;4.312;2023-03-14T14:49:02;4.22;;;1.63;;
22111;SDS011;11222;50.872;4.312;2023-03-14T14:51:32;4.53;;;1.63;;
22111;SDS011;11222;50.872;4.312;2023-03-14T14:54:04;4.78;;;2.33;;
22111;SDS011;11222;50.872;4.312;2023-03-14T14:56:36;4.03;;;1.40;;
22111;SDS011;11222;50.872;4.312;2023-03-14T14:59:03;3.58;;;1.60;;
22111;SDS011;11222;50.872;4.312;2023-03-14T15:01:33;3.58;;;1.33;;
22111;SDS011;11222;50.872;4.312;2023-03-14T15:04:04;3.35;;;1.40;;
22111;SDS011;11222;50.872;4.312;2023-03-14T15:06:37;5.60;;;1.35;;
22111;SDS011;11222;50.872;4.312;2023-03-14T15:09:04;5.15;;;1.40;;
22111;SDS011;11222;50.872;4.312;2023-03-14T15:11:30;4.68;;;2.00;;
22111;SDS011;11222;50.872;4.312;2023-03-14T15:13:56;3.67;;;1.27;;
22111;SDS011;11222;50.872;4.312;2023-03-14T15:16:22;2.75;;;1.30;;
22111;SDS011;11222;50.872;4.312;2023-03-14T15:18:58;7.70;;;1.50;;
22111;SDS011;11222;50.872;4.312;2023-03-14T15:21:34;2.38;;;1.30;;
22111;SDS011;11222;50.872;4.312;2023-03-14T15:23:59;6.85;;;2.05;;
22111;SDS011;11222;50.872;4.312;2023-03-14T15:26:26;4.70;;;1.58;;
22111;SDS011;11222;50.872;4.312;2023-03-14T15:28:53;9.18;;;3.05;;
22111;SDS011;11222;50.872;4.312;2023-03-14T15:31:19;7.78;;;2.60;;
22111;SDS011;11222;50.872;4.312;2023-03-14T15:33:46;7.25;;;2.90;;
22111;SDS011;11222;50.872;4.312;2023-03-14T15:36:20;5.50;;;2.45;;
22111;SDS011;11222;50.872;4.312;2023-03-14T15:38:46;2.88;;;2.08;;
22111;SDS011;11222;50.872;4.312;2023-03-14T15:41:12;4.25;;;1.65;;
22111;SDS011;11222;50.872;4.312;2023-03-14T15:43:38;4.65;;;2.05;;
22111;SDS011;11222;50.872;4.312;2023-03-14T15:46:03;4.15;;;1.75;;
22111;SDS011;11222;50.872;4.312;2023-03-14T15:48:31;3.83;;;1.70;;
22111;SDS011;11222;50.872;4.312;2023-03-14T15:50:58;6.53;;;1.55;;
22111;SDS011;11222;50.872;4.312;2023-03-14T15:53:24;4.90;;;1.50;;
22111;SDS011;11222;50.872;4.312;2023-03-14T15:55:49;5.18;;;1.50;;
22111;SDS011;11222;50.872;4.312;2023-03-14T15:58:17;3.10;;;1.42;;
22111;SDS011;11222;50.872;4.312;2023-03-14T16:00:43;4.97;;;1.80;;
22111;SDS011;11222;50.872;4.312;2023-03-14T16:03:09;8.20;;;2.03;;